createdAt,value
2023-05-07T00:00:37.068Z,101340.97
2023-05-07T00:03:05.564Z,101332.24
2023-05-07T00:05:33.721Z,101339.10
2023-05-07T00:08:01.860Z,101337.80
2023-05-07T00:10:29.967Z,101339.86
2023-05-07T00:12:58.015Z,101340.22
2023-05-07T00:15:26.074Z,101348.75
2023-05-07T00:17:54.164Z,101345.02
2023-05-07T00:20:22.133Z,101343.81
2023-05-07T00:22:50.145Z,101343.35
2023-05-07T00:25:18.282Z,101345.28
2023-05-07T00:27:46.342Z,101355.13
2023-05-07T00:30:14.553Z,101345.09
2023-05-07T00:32:42.763Z,101343.06
2023-05-07T00:35:11.248Z,101344.27
2023-05-07T00:37:39.386Z,101329.43
2023-05-07T00:40:09.978Z,101322.73
2023-05-07T00:42:39.054Z,101321.32
2023-05-07T00:45:07.412Z,101319.20
2023-05-07T00:47:35.479Z,101324.95
2023-05-07T00:50:03.497Z,101317.88
2023-05-07T00:52:32.077Z,101321.48
2023-05-07T00:55:00.133Z,101324.36
2023-05-07T00:57:28.201Z,101317.30
2023-05-07T00:59:56.208Z,101318.87
2023-05-07T01:02:24.237Z,101317.30
2023-05-07T01:04:52.439Z,101324.72
2023-05-07T01:07:21.005Z,101318.51
2023-05-07T01:09:48.959Z,101323.80
2023-05-07T01:12:17.011Z,101322.46
2023-05-07T01:14:44.975Z,101328.22
2023-05-07T01:17:13.146Z,101323.31
2023-05-07T01:19:41.246Z,101320.93
2023-05-07T01:22:16.897Z,101315.40
2023-05-07T01:24:44.918Z,101328.22
2023-05-07T01:27:26.942Z,101326.45
2023-05-07T01:29:54.907Z,101329.33
2023-05-07T01:32:26.850Z,101325.99
2023-05-07T01:34:55.278Z,101337.38
2023-05-07T01:37:23.686Z,101328.28
2023-05-07T01:39:51.690Z,101326.62
2023-05-07T01:42:19.708Z,101329.00
2023-05-07T01:44:48.101Z,101327.47
2023-05-07T01:47:16.665Z,101329.00
2023-05-07T01:49:44.672Z,101339.56
2023-05-07T01:52:13.436Z,101330.57
2023-05-07T01:54:41.519Z,101328.38
2023-05-07T01:57:09.476Z,101323.38
2023-05-07T01:59:37.475Z,101311.45
2023-05-07T02:02:05.554Z,101322.20
2023-05-07T02:04:33.991Z,101323.77
2023-05-07T02:07:01.963Z,101314.65
2023-05-07T02:09:30.443Z,101326.98
2023-05-07T02:11:58.485Z,101329.03
2023-05-07T02:14:26.571Z,101329.75
2023-05-07T02:16:54.743Z,101318.64
2023-05-07T02:19:23.486Z,101321.38
2023-05-07T02:21:51.637Z,101319.72
2023-05-07T02:24:19.620Z,101328.35
2023-05-07T02:26:47.613Z,101324.52
2023-05-07T02:29:15.748Z,101321.91
2023-05-07T02:31:43.804Z,101331.26
2023-05-07T02:34:11.820Z,101332.47
2023-05-07T02:36:39.882Z,101320.86
2023-05-07T02:39:07.935Z,101321.68
2023-05-07T02:41:36.122Z,101321.58
2023-05-07T02:44:04.195Z,101318.48
2023-05-07T02:46:32.443Z,101317.88
2023-05-07T02:49:00.658Z,101319.91
2023-05-07T02:51:29.370Z,101324.00
2023-05-07T02:53:57.498Z,101329.13
2023-05-07T02:56:25.528Z,101331.06
2023-05-07T02:58:53.549Z,101331.42
2023-05-07T03:01:21.685Z,101335.51
2023-05-07T03:03:49.755Z,101331.20
2023-05-07T03:06:17.837Z,101334.79
2023-05-07T03:08:46.329Z,101335.12
2023-05-07T03:11:14.328Z,101338.38
2023-05-07T03:13:42.400Z,101346.98
2023-05-07T03:16:10.393Z,101329.98
2023-05-07T03:18:38.409Z,101337.66
2023-05-07T03:21:06.553Z,101336.72
2023-05-07T03:23:34.464Z,101344.47
2023-05-07T03:26:02.417Z,101338.98
2023-05-07T03:28:30.426Z,101345.05
2023-05-07T03:30:58.406Z,101340.05
2023-05-07T03:33:26.433Z,101334.79
2023-05-07T03:35:54.408Z,101342.08
2023-05-07T03:38:22.375Z,101343.29
2023-05-07T03:40:50.363Z,101336.09
2023-05-07T03:43:18.405Z,101346.27
2023-05-07T03:45:46.403Z,101349.47
2023-05-07T03:48:14.482Z,101353.55
2023-05-07T03:50:42.437Z,101349.38
2023-05-07T03:53:10.546Z,101351.40
2023-05-07T03:55:38.519Z,101354.96
2023-05-07T03:58:06.501Z,101357.02
2023-05-07T04:00:40.506Z,101351.98
2023-05-07T04:03:08.574Z,101360.23
2023-05-07T04:05:36.787Z,101358.43
2023-05-07T04:08:05.099Z,101363.20
2023-05-07T04:10:33.087Z,101357.80
2023-05-07T04:13:01.201Z,101356.47
2023-05-07T04:15:29.298Z,101357.68
2023-05-07T04:17:57.448Z,101357.88
2023-05-07T04:20:25.878Z,101366.99
2023-05-07T04:22:53.915Z,101361.11
2023-05-07T04:25:21.973Z,101356.73
2023-05-07T04:27:51.317Z,101367.19
2023-05-07T04:30:19.379Z,101369.22
2023-05-07T04:32:47.490Z,101369.22
2023-05-07T04:35:15.512Z,101357.77
2023-05-07T04:37:43.507Z,101367.81
2023-05-07T04:40:12.496Z,101351.30
2023-05-07T04:42:40.711Z,101362.91
2023-05-07T04:45:08.941Z,101355.75
2023-05-07T04:47:36.930Z,101359.93
2023-05-07T04:50:05.147Z,101368.70
2023-05-07T04:52:33.673Z,101361.53
2023-05-07T04:55:02.228Z,101361.34
2023-05-07T04:57:30.279Z,101368.01
2023-05-07T04:59:58.481Z,101367.42
2023-05-07T05:02:26.469Z,101374.12
2023-05-07T05:04:54.445Z,101378.18
2023-05-07T05:07:22.428Z,101379.62
2023-05-07T05:09:50.449Z,101383.08
2023-05-07T05:12:18.461Z,101385.37
2023-05-07T05:14:46.554Z,101387.53
2023-05-07T05:17:14.579Z,101389.33
2023-05-07T05:19:42.581Z,101398.91
2023-05-07T05:22:10.567Z,101397.83
2023-05-07T05:24:38.545Z,101397.24
2023-05-07T05:27:07.706Z,101405.12
2023-05-07T05:29:35.634Z,101404.04
2023-05-07T05:32:03.665Z,101400.21
2023-05-07T05:34:31.685Z,101401.66
2023-05-07T05:36:59.706Z,101403.91
2023-05-07T05:39:27.804Z,101393.41
2023-05-07T05:41:55.787Z,101397.20
2023-05-07T05:44:23.923Z,101404.40
2023-05-07T05:46:52.366Z,101409.53
2023-05-07T05:49:20.504Z,101412.15
2023-05-07T05:51:48.507Z,101407.34
2023-05-07T05:54:17.470Z,101403.02
2023-05-07T05:56:45.623Z,101405.19
2023-05-07T05:59:13.723Z,101408.29
2023-05-07T06:01:41.758Z,101404.83
2023-05-07T06:04:09.843Z,101401.33
2023-05-07T06:06:37.916Z,101409.66
2023-05-07T06:09:06.317Z,101401.30
2023-05-07T06:11:34.767Z,101398.97
2023-05-07T06:14:02.710Z,101389.33
2023-05-07T06:16:31.180Z,101399.85
2023-05-07T06:18:59.808Z,101398.88
2023-05-07T06:21:27.854Z,101402.77
2023-05-07T06:23:57.283Z,101403.81
2023-05-07T06:26:25.457Z,101406.39
2023-05-07T06:28:54.075Z,101415.71
2023-05-07T06:31:25.382Z,101412.67
2023-05-07T06:33:55.164Z,101414.05
2023-05-07T06:36:23.365Z,101414.41
2023-05-07T06:38:51.289Z,101421.99
2023-05-07T06:41:19.303Z,101433.23
2023-05-07T06:43:47.540Z,101437.03
2023-05-07T06:46:15.533Z,101433.80
2023-05-07T06:48:43.488Z,101437.62
2023-05-07T06:51:11.462Z,101446.80
2023-05-07T06:53:39.476Z,101441.22
2023-05-07T06:56:07.690Z,101439.38
2023-05-07T06:58:35.719Z,101442.42
2023-05-07T07:01:03.819Z,101439.74
2023-05-07T07:03:32.315Z,101437.03
2023-05-07T07:06:00.399Z,101444.16
2023-05-07T07:08:28.533Z,101440.13
2023-05-07T07:10:56.555Z,101436.15
2023-05-07T07:13:24.674Z,101438.73
2023-05-07T07:15:53.758Z,101444.59
2023-05-07T07:18:21.958Z,101446.31
2023-05-07T07:20:50.073Z,101446.52
2023-05-07T07:23:18.155Z,101445.83
2023-05-07T07:25:46.207Z,101447.69
2023-05-07T07:28:14.204Z,101459.00
2023-05-07T07:30:42.346Z,101459.63
2023-05-07T07:33:10.468Z,101456.98
2023-05-07T07:35:38.632Z,101449.00
2023-05-07T07:38:06.635Z,101450.41
2023-05-07T07:40:36.703Z,101456.84
2023-05-07T07:43:04.863Z,101460.87
2023-05-07T07:45:32.889Z,101454.62
2023-05-07T07:48:01.069Z,101457.34
2023-05-07T07:50:43.632Z,101456.78
2023-05-07T07:53:13.750Z,101454.20
2023-05-07T07:55:42.503Z,101458.97
2023-05-07T07:58:10.623Z,101451.81
2023-05-07T08:00:39.070Z,101457.37
2023-05-07T08:03:07.710Z,101455.50
2023-05-07T08:05:36.044Z,101449.06
2023-05-07T08:08:04.228Z,101457.56
2023-05-07T08:10:36.305Z,101454.42
2023-05-07T08:13:06.181Z,101455.47
2023-05-07T08:15:34.273Z,101460.60
2023-05-07T08:18:05.396Z,101462.41
2023-05-07T08:20:33.390Z,101457.43
2023-05-07T08:23:01.570Z,101459.13
2023-05-07T08:25:29.649Z,101461.62
2023-05-07T08:27:57.707Z,101463.71
2023-05-07T08:30:25.820Z,101464.59
2023-05-07T08:32:53.883Z,101467.99
2023-05-07T08:35:22.065Z,101471.88
2023-05-07T08:37:50.139Z,101473.26
2023-05-07T08:40:18.501Z,101473.81
2023-05-07T08:42:47.060Z,101468.91
2023-05-07T08:45:15.274Z,101469.86
2023-05-07T08:47:47.572Z,101465.34
2023-05-07T08:50:15.704Z,101471.16
2023-05-07T08:52:43.942Z,101459.66
2023-05-07T08:55:12.559Z,101464.23
2023-05-07T08:57:41.053Z,101465.57
2023-05-07T09:00:09.693Z,101455.24
2023-05-07T09:02:38.642Z,101469.40
2023-05-07T09:05:07.105Z,101464.10
2023-05-07T09:07:35.385Z,101465.41
2023-05-07T09:10:07.575Z,101462.11
2023-05-07T09:12:37.573Z,101466.30
2023-05-07T09:15:06.248Z,101460.05
2023-05-07T09:17:34.451Z,101464.20
2023-05-07T09:20:10.991Z,101459.69
2023-05-07T09:22:40.148Z,101465.09
2023-05-07T09:25:09.726Z,101456.74
2023-05-07T09:27:38.080Z,101461.36
2023-05-07T09:30:08.617Z,101467.21
2023-05-07T09:32:42.655Z,101473.03
2023-05-07T09:35:18.458Z,101462.17
2023-05-07T09:37:46.546Z,101463.84
2023-05-07T09:40:28.204Z,101460.51
2023-05-07T09:42:56.420Z,101470.05
2023-05-07T09:45:28.322Z,101456.74
2023-05-07T09:47:57.946Z,101457.59
2023-05-07T09:50:30.654Z,101462.20
2023-05-07T09:52:59.103Z,101460.96
2023-05-07T09:55:27.184Z,101460.93
2023-05-07T09:57:55.890Z,101465.45
2023-05-07T10:00:24.425Z,101457.14
2023-05-07T10:02:54.489Z,101454.66
2023-05-07T10:05:22.834Z,101455.08
2023-05-07T10:07:51.269Z,101452.98
2023-05-07T10:10:19.600Z,101458.41
2023-05-07T10:12:47.713Z,101460.48
2023-05-07T10:15:16.732Z,101453.41
2023-05-07T10:17:44.922Z,101454.66
2023-05-07T10:20:13.169Z,101447.63
2023-05-07T10:22:45.212Z,101442.20
2023-05-07T10:25:19.899Z,101437.20
2023-05-07T10:27:48.916Z,101428.50
2023-05-07T10:30:38.647Z,101433.86
2023-05-07T10:33:10.664Z,101423.52
2023-05-07T10:35:43.283Z,101422.25
2023-05-07T10:38:11.677Z,101418.91
2023-05-07T10:40:39.731Z,101423.07
2023-05-07T10:43:10.521Z,101415.58
2023-05-07T10:45:39.198Z,101413.09
2023-05-07T10:48:29.616Z,101421.83
2023-05-07T10:51:34.801Z,101413.95
2023-05-07T10:54:11.787Z,101416.01
2023-05-07T10:56:40.475Z,101414.77
2023-05-07T10:59:36.391Z,101416.43
2023-05-07T11:02:09.025Z,101401.45
2023-05-07T11:04:37.415Z,101398.97
2023-05-07T11:07:08.332Z,101406.46
2023-05-07T11:09:58.296Z,101403.13
2023-05-07T11:12:38.328Z,101406.03
2023-05-07T11:15:06.954Z,101396.48
2023-05-07T11:17:37.590Z,101402.70
2023-05-07T11:20:06.988Z,101395.24
2023-05-07T11:22:35.413Z,101398.58
2023-05-07T11:25:03.666Z,101388.18
2023-05-07T11:27:31.877Z,101386.52
2023-05-07T11:29:59.893Z,101390.27
2023-05-07T11:32:30.638Z,101388.64
2023-05-07T11:34:59.957Z,101389.46
2023-05-07T11:37:29.196Z,101392.76
2023-05-07T11:40:08.012Z,101391.09
2023-05-07T11:42:38.850Z,101395.27
2023-05-07T11:45:08.517Z,101396.09
2023-05-07T11:47:36.882Z,101391.95
2023-05-07T11:50:10.022Z,101394.43
2023-05-07T11:52:38.082Z,101388.18
2023-05-07T11:55:06.792Z,101388.21
2023-05-07T11:57:35.591Z,101386.55
2023-05-07T12:00:09.706Z,101386.52
2023-05-07T12:02:38.308Z,101387.33
2023-05-07T12:05:06.752Z,101392.30
2023-05-07T12:07:36.199Z,101395.60
2023-05-07T12:10:08.668Z,101387.23
2023-05-07T12:12:44.299Z,101381.84
2023-05-07T12:15:12.873Z,101382.23
2023-05-07T12:17:41.354Z,101383.05
2023-05-07T12:20:10.209Z,101385.96
2023-05-07T12:22:39.171Z,101387.17
2023-05-07T12:25:08.145Z,101385.08
2023-05-07T12:27:39.529Z,101377.20
2023-05-07T12:30:08.381Z,101382.20
2023-05-07T12:32:39.296Z,101373.08
2023-05-07T12:35:08.961Z,101368.53
2023-05-07T12:37:37.221Z,101366.51
2023-05-07T12:40:10.118Z,101371.48
2023-05-07T12:42:38.693Z,101365.72
2023-05-07T12:45:14.277Z,101365.72
2023-05-07T12:47:46.876Z,101367.39
2023-05-07T12:50:18.084Z,101359.12
2023-05-07T12:52:52.172Z,101359.90
2023-05-07T12:55:20.228Z,101356.56
2023-05-07T12:57:50.154Z,101349.44
2023-05-07T13:00:18.634Z,101344.37
2023-05-07T13:02:47.032Z,101339.30
2023-05-07T13:05:15.263Z,101340.91
2023-05-07T13:07:44.141Z,101339.50
2023-05-07T13:10:12.310Z,101341.49
2023-05-07T13:12:40.455Z,101345.19
2023-05-07T13:15:09.782Z,101338.68
2023-05-07T13:17:38.247Z,101342.54
2023-05-07T13:20:07.709Z,101341.72
2023-05-07T13:22:35.823Z,101341.23
2023-05-07T13:25:03.981Z,101336.85
2023-05-07T13:27:33.341Z,101339.98
2023-05-07T13:30:01.439Z,101344.44
2023-05-07T13:32:29.598Z,101335.02
2023-05-07T13:34:57.993Z,101339.92
2023-05-07T13:37:26.098Z,101345.74
2023-05-07T13:39:54.217Z,101344.89
2023-05-07T13:42:22.125Z,101329.75
2023-05-07T13:44:50.348Z,101330.12
2023-05-07T13:47:18.698Z,101324.20
2023-05-07T13:49:46.732Z,101315.66
2023-05-07T13:52:15.072Z,101313.41
2023-05-07T13:54:43.054Z,101309.68
2023-05-07T13:57:11.076Z,101315.83
2023-05-07T13:59:39.011Z,101305.40
2023-05-07T14:02:07.169Z,101304.94
2023-05-07T14:04:35.176Z,101309.58
2023-05-07T14:07:03.299Z,101303.47
2023-05-07T14:09:31.300Z,101300.63
2023-05-07T14:11:59.425Z,101307.42
2023-05-07T14:14:27.503Z,101305.85
2023-05-07T14:16:55.585Z,101314.42
2023-05-07T14:19:25.185Z,101314.52
2023-05-07T14:21:53.312Z,101312.91
2023-05-07T14:24:34.476Z,101323.02
2023-05-07T14:27:05.444Z,101307.23
2023-05-07T14:29:33.488Z,101316.09
2023-05-07T14:32:01.534Z,101307.48
2023-05-07T14:34:29.681Z,101308.86
2023-05-07T14:36:58.031Z,101307.72
2023-05-07T14:39:26.113Z,101314.09
2023-05-07T14:41:54.277Z,101315.04
2023-05-07T14:44:22.636Z,101320.96
2023-05-07T14:46:51.074Z,101304.41
2023-05-07T14:49:19.485Z,101300.30
2023-05-07T14:51:47.865Z,101307.84
2023-05-07T14:54:16.115Z,101304.97
2023-05-07T14:56:44.205Z,101314.13
2023-05-07T14:59:12.852Z,101315.43
2023-05-07T15:01:42.893Z,101320.01
2023-05-07T15:04:11.030Z,101309.22
2023-05-07T15:06:39.332Z,101316.31
2023-05-07T15:09:07.292Z,101315.89
2023-05-07T15:11:35.357Z,101322.10
2023-05-07T15:14:03.469Z,101335.84
2023-05-07T15:16:31.572Z,101333.35
2023-05-07T15:18:59.676Z,101347.05
2023-05-07T15:21:29.167Z,101354.54
2023-05-07T15:23:57.566Z,101357.84
2023-05-07T15:26:25.672Z,101363.70
2023-05-07T15:28:53.736Z,101369.05
2023-05-07T15:31:22.092Z,101363.27
2023-05-07T15:33:51.016Z,101370.72
2023-05-07T15:36:19.158Z,101366.18
2023-05-07T15:38:47.249Z,101371.54
2023-05-07T15:41:15.308Z,101362.45
2023-05-07T15:43:49.404Z,101360.75
2023-05-07T15:46:25.868Z,101362.84
2023-05-07T15:48:54.691Z,101366.99
2023-05-07T15:51:24.094Z,101357.84
2023-05-07T15:53:53.477Z,101366.99
2023-05-07T15:56:21.554Z,101362.02
2023-05-07T15:58:50.749Z,101371.57
2023-05-07T16:01:18.779Z,101371.12
2023-05-07T16:03:47.119Z,101373.60
2023-05-07T16:06:15.288Z,101369.45
2023-05-07T16:08:45.421Z,101375.20
2023-05-07T16:11:13.657Z,101381.41
2023-05-07T16:13:41.757Z,101389.69
2023-05-07T16:16:09.809Z,101386.35
2023-05-07T16:18:38.414Z,101392.95
2023-05-07T16:21:07.890Z,101391.32
2023-05-07T16:23:36.267Z,101400.80
2023-05-07T16:26:05.969Z,101397.44
2023-05-07T16:28:33.998Z,101404.50
2023-05-07T16:31:02.153Z,101407.77
2023-05-07T16:33:30.159Z,101405.28
2023-05-07T16:35:58.454Z,101407.73
2023-05-07T16:38:28.351Z,101407.70
2023-05-07T16:40:56.587Z,101403.55
2023-05-07T16:43:24.626Z,101410.97
2023-05-07T16:45:53.836Z,101419.57
2023-05-07T16:48:22.003Z,101426.63
2023-05-07T16:50:50.203Z,101432.39
2023-05-07T16:53:18.297Z,101433.59
2023-05-07T16:55:46.348Z,101429.84
2023-05-07T16:58:14.424Z,101447.63
2023-05-07T17:00:50.640Z,101453.80
2023-05-07T17:03:19.899Z,101454.62
2023-05-07T17:05:48.215Z,101474.04
2023-05-07T17:08:16.610Z,101473.55
2023-05-07T17:10:44.607Z,101488.00
2023-05-07T17:13:12.660Z,101495.82
2023-05-07T17:15:42.579Z,101503.21
2023-05-07T17:18:10.730Z,101508.87
2023-05-07T17:20:39.781Z,101522.40
2023-05-07T17:23:08.528Z,101536.39
2023-05-07T17:25:37.516Z,101537.80
2023-05-07T17:28:05.891Z,101540.32
2023-05-07T17:30:33.974Z,101552.74
2023-05-07T17:33:16.751Z,101556.24
2023-05-07T17:35:51.218Z,101553.79
2023-05-07T17:38:19.291Z,101565.36
2023-05-07T17:40:47.457Z,101567.81
2023-05-07T17:43:16.148Z,101578.67
2023-05-07T17:45:44.228Z,101580.20
2023-05-07T17:48:12.312Z,101574.81
2023-05-07T17:50:40.460Z,101581.12
2023-05-07T17:53:09.330Z,101580.60
2023-05-07T17:55:41.795Z,101588.12
2023-05-07T17:58:11.115Z,101596.91
2023-05-07T18:00:39.350Z,101591.00
2023-05-07T18:03:07.670Z,101598.71
2023-05-07T18:05:39.209Z,101604.34
2023-05-07T18:08:10.181Z,101608.59
2023-05-07T18:10:38.296Z,101611.73
2023-05-07T18:13:06.326Z,101608.30
2023-05-07T18:15:34.442Z,101613.23
2023-05-07T18:18:02.651Z,101619.77
2023-05-07T18:20:30.749Z,101624.22
2023-05-07T18:22:58.872Z,101620.52
2023-05-07T18:25:27.075Z,101626.27
2023-05-07T18:27:55.104Z,101629.74
2023-05-07T18:30:23.705Z,101629.05
2023-05-07T18:32:51.921Z,101639.95
2023-05-07T18:35:20.525Z,101650.44
2023-05-07T18:37:48.599Z,101647.30
2023-05-07T18:40:16.632Z,101648.48
2023-05-07T18:42:44.659Z,101650.08
2023-05-07T18:45:13.036Z,101649.13
2023-05-07T18:47:41.068Z,101650.24
2023-05-07T18:50:09.555Z,101659.17
2023-05-07T18:52:37.800Z,101667.34
2023-05-07T18:55:07.822Z,101673.95
2023-05-07T18:57:36.115Z,101671.33
2023-05-07T19:00:04.289Z,101676.53
2023-05-07T19:02:32.270Z,101679.41
2023-05-07T19:05:00.378Z,101688.89
2023-05-07T19:07:28.443Z,101691.31
2023-05-07T19:10:04.923Z,101694.55
2023-05-07T19:12:33.932Z,101704.42
2023-05-07T19:15:01.997Z,101697.33
2023-05-07T19:17:30.328Z,101702.72
2023-05-07T19:19:58.403Z,101703.57
2023-05-07T19:24:54.763Z,101711.65
2023-05-07T19:27:22.757Z,101711.16
2023-05-07T19:29:50.777Z,101721.45
2023-05-07T19:32:18.891Z,101721.00
2023-05-07T19:34:46.893Z,101722.56
2023-05-07T19:37:14.940Z,101723.41
2023-05-07T19:39:43.009Z,101718.88
2023-05-07T19:42:11.197Z,101722.93
2023-05-07T19:44:39.248Z,101726.20
2023-05-07T19:47:08.246Z,101729.89
2023-05-07T19:49:36.379Z,101730.64
2023-05-07T19:52:04.506Z,101735.58
2023-05-07T19:54:32.417Z,101731.00
2023-05-07T19:57:00.457Z,101737.97
2023-05-07T19:59:28.498Z,101737.12
2023-05-07T20:01:56.623Z,101735.91
2023-05-07T20:04:30.377Z,101746.60
2023-05-07T20:06:58.817Z,101749.48
2023-05-07T20:09:26.799Z,101744.11
2023-05-07T20:11:54.807Z,101750.95
2023-05-07T20:14:22.918Z,101750.95
2023-05-07T20:16:51.006Z,101754.64
2023-05-07T20:19:20.074Z,101762.13
2023-05-07T20:21:48.284Z,101760.43
2023-05-07T20:24:16.347Z,101768.96
2023-05-07T20:26:44.338Z,101775.53
2023-05-07T20:29:12.428Z,101770.99
2023-05-07T20:31:40.968Z,101779.63
2023-05-07T20:34:09.392Z,101776.25
2023-05-07T20:36:37.455Z,101785.77
2023-05-07T20:39:05.645Z,101780.73
2023-05-07T20:41:33.616Z,101780.73
2023-05-07T20:44:01.972Z,101791.39
2023-05-07T20:46:30.933Z,101788.05
2023-05-07T20:48:59.246Z,101791.98
2023-05-07T20:51:28.538Z,101791.98
2023-05-07T20:53:56.517Z,101796.91
2023-05-07T20:56:24.520Z,101798.45
2023-05-07T20:58:52.579Z,101801.73
2023-05-07T21:01:20.569Z,101799.30
2023-05-07T21:03:48.489Z,101799.17
2023-05-07T21:06:16.525Z,101797.51
2023-05-07T21:08:44.514Z,101800.02
2023-05-07T21:11:14.446Z,101790.05
2023-05-07T21:13:42.431Z,101788.38
2023-05-07T21:16:11.437Z,101790.77
2023-05-07T21:18:39.630Z,101792.83
2023-05-07T21:21:11.484Z,101792.83
2023-05-07T21:23:39.476Z,101787.44
2023-05-07T21:26:07.646Z,101789.01
2023-05-07T21:28:36.058Z,101783.97
2023-05-07T21:31:04.085Z,101784.69
2023-05-07T21:33:32.220Z,101785.90
2023-05-07T21:36:00.286Z,101786.23
2023-05-07T21:38:28.251Z,101786.23
2023-05-07T21:40:56.200Z,101789.82
2023-05-07T21:43:24.206Z,101786.13
2023-05-07T21:45:52.293Z,101789.34
2023-05-07T21:48:23.324Z,101790.05
2023-05-07T21:51:04.374Z,101792.11
2023-05-07T21:53:32.479Z,101796.91
2023-05-07T21:56:04.327Z,101792.38
2023-05-07T21:58:32.533Z,101787.34
2023-05-07T22:01:01.799Z,101788.52
2023-05-07T22:03:29.888Z,101791.66
2023-05-07T22:05:57.940Z,101793.55
2023-05-07T22:08:25.905Z,101795.58
2023-05-07T22:10:53.942Z,101799.66
2023-05-07T22:13:22.028Z,101797.12
2023-05-07T22:15:57.175Z,101806.59
2023-05-07T22:18:26.316Z,101802.28
2023-05-07T22:20:54.231Z,101801.20
2023-05-07T22:23:22.239Z,101795.77
2023-05-07T22:25:50.270Z,101800.58
2023-05-07T22:28:18.372Z,101800.94
2023-05-07T22:30:46.298Z,101793.48
2023-05-07T22:33:14.792Z,101796.63
2023-05-07T22:35:42.722Z,101792.05
2023-05-07T22:38:10.737Z,101799.83
2023-05-07T22:40:38.702Z,101804.63
2023-05-07T22:43:06.724Z,101799.60
2023-05-07T22:45:34.697Z,101804.86
2023-05-07T22:48:02.852Z,101809.77
2023-05-07T22:50:30.954Z,101808.91
2023-05-07T22:52:59.005Z,101800.65
2023-05-07T22:55:27.053Z,101815.03
2023-05-07T22:57:55.042Z,101805.42
2023-05-07T23:00:23.187Z,101807.09
2023-05-07T23:02:51.283Z,101800.74
2023-05-07T23:05:19.225Z,101798.72
2023-05-07T23:07:47.129Z,101803.59
2023-05-07T23:10:15.295Z,101803.13
2023-05-07T23:12:43.491Z,101809.21
2023-05-07T23:15:11.960Z,101803.36
2023-05-07T23:17:40.336Z,101806.59
2023-05-07T23:20:12.112Z,101805.26
2023-05-07T23:22:40.347Z,101801.56
2023-05-07T23:25:10.449Z,101801.04
2023-05-07T23:27:38.592Z,101796.49
2023-05-07T23:30:07.260Z,101797.64
2023-05-07T23:32:35.437Z,101810.36
2023-05-07T23:35:03.432Z,101806.53
2023-05-07T23:37:31.348Z,101803.66
2023-05-07T23:39:59.334Z,101794.86
2023-05-07T23:55:31.836Z,101805.74
2023-05-07T23:57:59.849Z,101789.07
